Ag Nektarios Aiginas — SX7083 — position and weather

sailwx.info

Track history (hours):
 
Tides and Currents Weather Stations Pressure Air Temp Water Temp Dewpoint Dewpoint Depression Visibility Wind Speed Wind Dir Waves Ship Positions

Ag Nektarios Aiginas

Last reported at 2014-Jul-24 16:33 UTC. Time now 2014-Jul-24 17:43 UTC.
Position N 37°56' E 023°37'.

Length 75 m; draft 2.7 m.

Type: Passenger vessel. MMSI: 237021400.

Date/timePositionNaut miles runAvg speedWind from/ knotsBaromVisibWave heightAir tempDewpointWater temp
2014-Jul-24 16:33N 37°56' E 023°37'1313.0
2014-Jul-24 15:34N 37°47' E 023°26'0 0.2
2014-Jul-24 14:30N 37°47' E 023°26'1212.3
2014-Jul-24 13:34N 37°55' E 023°36'1 0.7
2014-Jul-24 12:34N 37°56' E 023°36'1312.8
2014-Jul-24 11:34N 37°46' E 023°25'3 2.6
2014-Jul-24 10:15N 37°48' E 023°29'912.4
2014-Jul-24 09:34N 37°55' E 023°36'2 2.1
2014-Jul-24 08:34N 37°56' E 023°38'1312.7
2014-Jul-24 07:33N 37°47' E 023°27'0 0.4
2014-Jul-24 06:33N 37°47' E 023°26'1212.4
2014-Jul-24 05:34N 37°56' E 023°37'1 1.3
2014-Jul-24 04:33N 37°57' E 023°38'0 0.0
2014-Jul-23 17:12N 37°57' E 023°38'4 6.7
2014-Jul-23 16:33N 37°54' E 023°35'1211.5
2014-Jul-23 15:33N 37°45' E 023°25'2 1.7
2014-Jul-23 14:33N 37°46' E 023°25'1212.5
2014-Jul-23 13:33N 37°55' E 023°36'0 0.3
2014-Jul-23 12:33N 37°55' E 023°36'1312.7
2014-Jul-23 11:33N 37°46' E 023°25'12 6.1
2014-Jul-23 09:33N 37°55' E 023°36'3 2.8
2014-Jul-23 08:33N 37°57' E 023°38'1312.5
2014-Jul-23 07:33N 37°47' E 023°27'1 1.4
2014-Jul-23 06:33N 37°47' E 023°26'1312.7
2014-Jul-23 05:33N 37°56' E 023°37'0 0.0
2014-Jul-22 16:34N 37°56' E 023°37'1312.6
2014-Jul-22 15:34N 37°47' E 023°26'1 1.0
2014-Jul-22 14:32N 37°46' E 023°25'1212.4
2014-Jul-22 13:33N 37°55' E 023°36'1 1.2
2014-Jul-22 12:33N 37°56' E 023°37'1312.8
2014-Jul-22 11:33N 37°47' E 023°25'1 1.4
2014-Jul-22 10:33N 37°46' E 023°24'1312.7
2014-Jul-22 09:33N 37°55' E 023°36'3 2.6
2014-Jul-22 08:33N 37°56' E 023°38'1212.5
2014-Jul-22 07:33N 37°48' E 023°27'1 1.5
2014-Jul-22 06:33N 37°47' E 023°26'1312.8
2014-Jul-22 05:34N 37°56' E 023°36'2 0.2
2014-Jul-21 17:10N 37°57' E 023°38'3 4.4
2014-Jul-21 16:33N 37°55' E 023°36'1312.7
2014-Jul-21 15:33N 37°46' E 023°25'1 0.7
2014-Jul-21 14:31N 37°46' E 023°25'1212.5
2014-Jul-21 13:33N 37°55' E 023°36'1 0.8
2014-Jul-21 12:33N 37°56' E 023°36'1312.9
2014-Jul-21 11:33N 37°46' E 023°25'0 0.1
2014-Jul-21 10:29N 37°46' E 023°25'1212.6
2014-Jul-21 09:33N 37°55' E 023°36'1 1.1
2014-Jul-21 08:33N 37°56' E 023°37'1212.5
2014-Jul-21 07:33N 37°47' E 023°26'0 0.2
2014-Jul-21 06:33N 37°47' E 023°26'10 0.9
2014-Jul-20 19:32N 37°54' E 023°35'3 0.5
2014-Jul-20 13:10N 37°51' E 023°33'2 1.0
2014-Jul-20 11:33N 37°52' E 023°34'4 0.2
2014-Jul-19 16:29N 37°55' E 023°36'0 0.1
2014-Jul-19 13:33N 37°55' E 023°36'1 0.7
2014-Jul-19 12:33N 37°56' E 023°36'1312.5
2014-Jul-19 11:33N 37°47' E 023°25'1 1.0
2014-Jul-19 10:33N 37°46' E 023°25'1312.7
2014-Jul-19 09:33N 37°55' E 023°36'3 2.7
2014-Jul-19 08:33N 37°57' E 023°38'1211.8
2014-Jul-19 07:33N 37°48' E 023°28'3 2.7
2014-Jul-19 06:33N 37°47' E 023°25'1312.9
2014-Jul-19 05:33N 37°56' E 023°37'2 1.7
2014-Jul-19 04:33N 37°57' E 023°38'0 0.0
2014-Jul-18 20:29N 37°57' E 023°38'1010.9
2014-Jul-18 19:33N 37°49' E 023°30'5 5.0
2014-Jul-18 18:33N 37°46' E 023°25'1312.8
2014-Jul-18 17:33N 37°55' E 023°36'1 1.2
2014-Jul-18 16:33N 37°54' E 023°35'1212.4
2014-Jul-18 15:33N 37°45' E 023°25'4 4.4
2014-Jul-18 14:33N 37°48' E 023°29'1111.5
2014-Jul-18 13:33N 37°57' E 023°39'1 1.4
2014-Jul-18 12:33N 37°56' E 023°37'1312.7
2014-Jul-18 11:33N 37°47' E 023°26'1 0.7
2014-Jul-18 10:32N 37°46' E 023°25'1212.7
2014-Jul-18 09:33N 37°55' E 023°36'1 1.2
2014-Jul-18 08:33N 37°56' E 023°37'1212.6
2014-Jul-18 07:33N 37°47' E 023°26'0 0.2
2014-Jul-18 06:33N 37°47' E 023°26'13 0.9
2014-Jul-17 16:33N 37°56' E 023°37'1312.7
2014-Jul-17 15:33N 37°47' E 023°26'2 2.1
2014-Jul-17 14:33N 37°45' E 023°25'1312.6
2014-Jul-17 13:33N 37°55' E 023°36'1 1.2
2014-Jul-17 12:33N 37°55' E 023°37'1312.7
2014-Jul-17 11:33N 37°46' E 023°25'0 0.2
2014-Jul-17 10:31N 37°46' E 023°25'1212.7
2014-Jul-17 09:33N 37°55' E 023°36'1 1.0
2014-Jul-17 08:33N 37°56' E 023°37'1212.4
2014-Jul-17 07:33N 37°47' E 023°26'0 0.1
2014-Jul-17 06:33N 37°47' E 023°26'1312.7
2014-Jul-17 05:33N 37°56' E 023°37'1 1.2
2014-Jul-17 04:33N 37°57' E 023°38'2 0.2
2014-Jul-16 16:33N 37°55' E 023°36'1312.8
2014-Jul-16 15:33N 37°46' E 023°25'1 1.4
2014-Jul-16 14:32N 37°47' E 023°26'1212.7
2014-Jul-16 13:33N 37°56' E 023°37'0 0.3
2014-Jul-16 12:33N 37°56' E 023°37'1312.8
2014-Jul-16 11:33N 37°47' E 023°26'1 1.0
2014-Jul-16 10:33N 37°47' E 023°27'1312.5
2014-Jul-16 09:33N 37°56' E 023°38'0 0.3
2014-Jul-16 08:33N 37°56' E 023°37'1312.6
2014-Jul-16 07:33N 37°47' E 023°26'0 0.2
2014-Jul-16 06:33N 37°47' E 023°26'1212.5
2014-Jul-16 05:33N 37°56' E 023°37'1 1.4
2014-Jul-16 04:33N 37°57' E 023°38'2 0.2
2014-Jul-15 16:33N 37°56' E 023°37'1312.6
2014-Jul-15 15:33N 37°47' E 023°25'1 0.7
2014-Jul-15 14:33N 37°47' E 023°26'1312.7
2014-Jul-15 13:34N 37°56' E 023°37'2 1.6
2014-Jul-15 12:33N 37°55' E 023°36'1212.4
2014-Jul-15 11:34N 37°46' E 023°25'0 0.3
2014-Jul-15 10:33N 37°46' E 023°25'1212.5
2014-Jul-15 09:34N 37°55' E 023°36'1 0.7
2014-Jul-15 08:34N 37°55' E 023°36'1212.3
2014-Jul-15 07:34N 37°46' E 023°25'1 1.2
2014-Jul-15 06:33N 37°47' E 023°26'1212.5
2014-Jul-15 05:34N 37°56' E 023°37'2 0.1
2014-Jul-14 17:15N 37°57' E 023°38'4 6.4
2014-Jul-14 16:33N 37°53' E 023°35'  
Track history (hours):
 
Tides and Currents Weather Stations Pressure Air Temp Water Temp Dewpoint Dewpoint Depression Visibility Wind Speed Wind Dir Waves Ship Positions

Ag Nektarios Aiginas

Last reported at 2014-Jul-24 16:33 UTC. Time now 2014-Jul-24 17:43 UTC.
Position N 37°56' E 023°37'.

Length 75 m; draft 2.7 m.

Type: Passenger vessel. MMSI: 237021400.

Date/timePositionNaut miles runAvg speedWind from/ knotsBaromVisibWave heightAir tempDewpointWater temp
2014-Jul-24 16:33N 37°56' E 023°37'1313.0
2014-Jul-24 15:34N 37°47' E 023°26'0 0.2
2014-Jul-24 14:30N 37°47' E 023°26'1212.3
2014-Jul-24 13:34N 37°55' E 023°36'1 0.7
2014-Jul-24 12:34N 37°56' E 023°36'1312.8
2014-Jul-24 11:34N 37°46' E 023°25'3 2.6
2014-Jul-24 10:15N 37°48' E 023°29'912.4
2014-Jul-24 09:34N 37°55' E 023°36'2 2.1
2014-Jul-24 08:34N 37°56' E 023°38'1312.7
2014-Jul-24 07:33N 37°47' E 023°27'0 0.4
2014-Jul-24 06:33N 37°47' E 023°26'1212.4
2014-Jul-24 05:34N 37°56' E 023°37'1 1.3
2014-Jul-24 04:33N 37°57' E 023°38'0 0.0
2014-Jul-23 17:12N 37°57' E 023°38'4 6.7
2014-Jul-23 16:33N 37°54' E 023°35'1211.5
2014-Jul-23 15:33N 37°45' E 023°25'2 1.7
2014-Jul-23 14:33N 37°46' E 023°25'1212.5
2014-Jul-23 13:33N 37°55' E 023°36'0 0.3
2014-Jul-23 12:33N 37°55' E 023°36'1312.7
2014-Jul-23 11:33N 37°46' E 023°25'12 6.1
2014-Jul-23 09:33N 37°55' E 023°36'3 2.8
2014-Jul-23 08:33N 37°57' E 023°38'1312.5
2014-Jul-23 07:33N 37°47' E 023°27'1 1.4
2014-Jul-23 06:33N 37°47' E 023°26'1312.7
2014-Jul-23 05:33N 37°56' E 023°37'0 0.0
2014-Jul-22 16:34N 37°56' E 023°37'1312.6
2014-Jul-22 15:34N 37°47' E 023°26'1 1.0
2014-Jul-22 14:32N 37°46' E 023°25'1212.4
2014-Jul-22 13:33N 37°55' E 023°36'1 1.2
2014-Jul-22 12:33N 37°56' E 023°37'1312.8
2014-Jul-22 11:33N 37°47' E 023°25'1 1.4
2014-Jul-22 10:33N 37°46' E 023°24'1312.7
2014-Jul-22 09:33N 37°55' E 023°36'3 2.6
2014-Jul-22 08:33N 37°56' E 023°38'1212.5
2014-Jul-22 07:33N 37°48' E 023°27'1 1.5
2014-Jul-22 06:33N 37°47' E 023°26'1312.8
2014-Jul-22 05:34N 37°56' E 023°36'2 0.2
2014-Jul-21 17:10N 37°57' E 023°38'3 4.4
2014-Jul-21 16:33N 37°55' E 023°36'1312.7
2014-Jul-21 15:33N 37°46' E 023°25'1 0.7
2014-Jul-21 14:31N 37°46' E 023°25'1212.5
2014-Jul-21 13:33N 37°55' E 023°36'1 0.8
2014-Jul-21 12:33N 37°56' E 023°36'1312.9
2014-Jul-21 11:33N 37°46' E 023°25'0 0.1
2014-Jul-21 10:29N 37°46' E 023°25'1212.6
2014-Jul-21 09:33N 37°55' E 023°36'1 1.1
2014-Jul-21 08:33N 37°56' E 023°37'1212.5
2014-Jul-21 07:33N 37°47' E 023°26'0 0.2
2014-Jul-21 06:33N 37°47' E 023°26'10 0.9
2014-Jul-20 19:32N 37°54' E 023°35'3 0.5
2014-Jul-20 13:10N 37°51' E 023°33'2 1.0
2014-Jul-20 11:33N 37°52' E 023°34'4 0.2
2014-Jul-19 16:29N 37°55' E 023°36'0 0.1
2014-Jul-19 13:33N 37°55' E 023°36'1 0.7
2014-Jul-19 12:33N 37°56' E 023°36'1312.5
2014-Jul-19 11:33N 37°47' E 023°25'1 1.0
2014-Jul-19 10:33N 37°46' E 023°25'1312.7
2014-Jul-19 09:33N 37°55' E 023°36'3 2.7
2014-Jul-19 08:33N 37°57' E 023°38'1211.8
2014-Jul-19 07:33N 37°48' E 023°28'3 2.7
2014-Jul-19 06:33N 37°47' E 023°25'1312.9
2014-Jul-19 05:33N 37°56' E 023°37'2 1.7
2014-Jul-19 04:33N 37°57' E 023°38'0 0.0
2014-Jul-18 20:29N 37°57' E 023°38'1010.9
2014-Jul-18 19:33N 37°49' E 023°30'5 5.0
2014-Jul-18 18:33N 37°46' E 023°25'1312.8
2014-Jul-18 17:33N 37°55' E 023°36'1 1.2
2014-Jul-18 16:33N 37°54' E 023°35'1212.4
2014-Jul-18 15:33N 37°45' E 023°25'4 4.4
2014-Jul-18 14:33N 37°48' E 023°29'1111.5
2014-Jul-18 13:33N 37°57' E 023°39'1 1.4
2014-Jul-18 12:33N 37°56' E 023°37'1312.7
2014-Jul-18 11:33N 37°47' E 023°26'1 0.7
2014-Jul-18 10:32N 37°46' E 023°25'1212.7
2014-Jul-18 09:33N 37°55' E 023°36'1 1.2
2014-Jul-18 08:33N 37°56' E 023°37'1212.6
2014-Jul-18 07:33N 37°47' E 023°26'0 0.2
2014-Jul-18 06:33N 37°47' E 023°26'13 0.9
2014-Jul-17 16:33N 37°56' E 023°37'1312.7
2014-Jul-17 15:33N 37°47' E 023°26'2 2.1
2014-Jul-17 14:33N 37°45' E 023°25'1312.6
2014-Jul-17 13:33N 37°55' E 023°36'1 1.2
2014-Jul-17 12:33N 37°55' E 023°37'1312.7
2014-Jul-17 11:33N 37°46' E 023°25'0 0.2
2014-Jul-17 10:31N 37°46' E 023°25'1212.7
2014-Jul-17 09:33N 37°55' E 023°36'1 1.0
2014-Jul-17 08:33N 37°56' E 023°37'1212.4
2014-Jul-17 07:33N 37°47' E 023°26'0 0.1
2014-Jul-17 06:33N 37°47' E 023°26'1312.7
2014-Jul-17 05:33N 37°56' E 023°37'1 1.2
2014-Jul-17 04:33N 37°57' E 023°38'2 0.2
2014-Jul-16 16:33N 37°55' E 023°36'1312.8
2014-Jul-16 15:33N 37°46' E 023°25'1 1.4
2014-Jul-16 14:32N 37°47' E 023°26'1212.7
2014-Jul-16 13:33N 37°56' E 023°37'0 0.3
2014-Jul-16 12:33N 37°56' E 023°37'1312.8
2014-Jul-16 11:33N 37°47' E 023°26'1 1.0
2014-Jul-16 10:33N 37°47' E 023°27'1312.5
2014-Jul-16 09:33N 37°56' E 023°38'0 0.3
2014-Jul-16 08:33N 37°56' E 023°37'1312.6
2014-Jul-16 07:33N 37°47' E 023°26'0 0.2
2014-Jul-16 06:33N 37°47' E 023°26'1212.5
2014-Jul-16 05:33N 37°56' E 023°37'1 1.4
2014-Jul-16 04:33N 37°57' E 023°38'2 0.2
2014-Jul-15 16:33N 37°56' E 023°37'1312.6
2014-Jul-15 15:33N 37°47' E 023°25'1 0.7
2014-Jul-15 14:33N 37°47' E 023°26'1312.7
2014-Jul-15 13:34N 37°56' E 023°37'2 1.6
2014-Jul-15 12:33N 37°55' E 023°36'1212.4
2014-Jul-15 11:34N 37°46' E 023°25'0 0.3
2014-Jul-15 10:33N 37°46' E 023°25'1212.5
2014-Jul-15 09:34N 37°55' E 023°36'1 0.7
2014-Jul-15 08:34N 37°55' E 023°36'1212.3
2014-Jul-15 07:34N 37°46' E 023°25'1 1.2
2014-Jul-15 06:33N 37°47' E 023°26'1212.5
2014-Jul-15 05:34N 37°56' E 023°37'2 0.1
2014-Jul-14 17:15N 37°57' E 023°38'4 6.4
2014-Jul-14 16:33N 37°53' E 023°35'  

Dump ship's entire track history